Menifee, AR (72107)

5:13 PM CDT on April 23, 2017 (GMT -0500)
Bristol Place | | Change Station

Elev 354 ft 35.09 °N, 92.52 °W | Updated 40 seconds ago

Clear
Clear
72.1 °F
Feels Like 75 °F
N
0.7
Wind Variable Wind from North
Gusts 2.7 mph

Today
High -- | Low -- °F
--% Chance of Precip.
Yesterday
High -- | Low -- °F
Precip. -- in
Pressure 29.95 in
Visibility 10.0 miles
Clouds Clear
Heat Index 75 °F
Dew Point 30 °F
Humidity 21%
Rainfall 0.00 in
Snow Depth Not available.
6:27 AM 7:49 PM
Waning Crescent, 9% visible
METAR KLRF 232158Z AUTO 32008G18KT 10SM CLR 23/04 A2994 RMK AO2 SLP140 T02290043
Pressure 29.95 in
Visibility 10.0 miles
Clouds Clear
Heat Index 75 °F
Dew Point 30 °F
Humidity 21%
Rainfall 0.00 in
Snow Depth Not available.
6:27 AM 7:49 PM
Waning Crescent, 9% visible
METAR KLRF 232158Z AUTO 32008G18KT 10SM CLR 23/04 A2994 RMK AO2 SLP140 T02290043

Get Severe Weather Alerts

Thanks for signing up!

Be on the lookout for a verification email in your inbox.

You'll start receiving the daily forecast at 8 AM.

×

10-Day Weather Forecast

Almanac

Astronomy

Apr. 23, 2017 Rise Set
Actual Time
Civil Twilight
Nautical Twilight
Astronomical Twilight
Moon
Length of Visible Light
Length of Day
Tomorrow will be .
, % of the Moon is Illuminated

Today's Extremes

State Highs State Lows

Community

WunderPhotos

WunderBlog® & News

Nearby

Air Quality

  Air Quality AQ Index Pollutant
Not available.

Snow Depth

Station Depth Elevation

Earthquake Activity

City Distance Mag. Time & Date
Minimum magnitude displayed is 2.5.

Coastal Water Temperatures

Place Temperature

Stations

Nearby Weather Stations

Station Location Temp. Windchill Dew Point Humidity Wind Precip. Elev Updated Type
                   

Watches & Warnings

There are currently no watches in effect.